createdAt,value
2017-10-04T00:04:47.526Z,10.80
2017-10-04T00:07:15.702Z,10.80
2017-10-04T00:09:43.803Z,10.80
2017-10-04T00:12:10.092Z,10.80
2017-10-04T00:14:37.060Z,10.70
2017-10-04T00:17:03.610Z,10.70
2017-10-04T00:19:31.248Z,10.70
2017-10-04T00:21:58.490Z,10.70
2017-10-04T00:24:25.955Z,10.70
2017-10-04T00:26:52.912Z,10.70
2017-10-04T00:29:21.620Z,10.70
2017-10-04T00:31:47.839Z,10.70
2017-10-04T00:34:14.551Z,10.70
2017-10-04T00:36:41.690Z,10.80
2017-10-04T00:39:09.334Z,10.80
2017-10-04T00:41:36.126Z,10.80
2017-10-04T00:44:03.235Z,10.80
2017-10-04T00:46:31.038Z,10.80
2017-10-04T00:48:57.879Z,10.70
2017-10-04T00:51:24.741Z,10.80
2017-10-04T00:53:52.765Z,10.80
2017-10-04T00:56:20.829Z,10.70
2017-10-04T00:58:48.282Z,10.70
2017-10-04T01:01:16.664Z,10.70
2017-10-04T01:03:44.676Z,10.70
2017-10-04T01:06:11.138Z,10.70
2017-10-04T01:08:38.691Z,10.60
2017-10-04T01:11:04.922Z,10.60
2017-10-04T01:13:32.175Z,10.70
2017-10-04T01:15:59.388Z,10.70
2017-10-04T01:18:26.523Z,10.70
2017-10-04T01:20:52.793Z,10.70
2017-10-04T01:23:19.302Z,10.70
2017-10-04T01:25:46.223Z,10.70
2017-10-04T01:28:13.805Z,10.60
2017-10-04T01:30:40.451Z,10.60
2017-10-04T01:33:08.626Z,10.60
2017-10-04T01:35:36.632Z,10.60
2017-10-04T01:38:02.845Z,10.50
2017-10-04T01:40:29.268Z,10.60
2017-10-04T01:42:55.512Z,10.50
2017-10-04T01:45:23.461Z,10.50
2017-10-04T01:47:51.466Z,10.40
2017-10-04T01:50:17.698Z,10.40
2017-10-04T01:52:44.967Z,10.30
2017-10-04T01:55:12.492Z,10.30
2017-10-04T01:57:39.209Z,10.30
2017-10-04T02:00:06.001Z,10.30
2017-10-04T02:02:32.960Z,10.30
2017-10-04T02:04:59.802Z,10.30
2017-10-04T02:07:26.609Z,10.30
2017-10-04T02:09:53.131Z,10.30
2017-10-04T02:12:20.691Z,10.20
2017-10-04T02:14:46.893Z,10.20
2017-10-04T02:17:13.096Z,10.20
2017-10-04T02:19:39.846Z,10.10
2017-10-04T02:22:07.014Z,10.10
2017-10-04T02:24:33.825Z,10.10
2017-10-04T02:27:01.066Z,10.10
2017-10-04T02:29:29.476Z,10.10
2017-10-04T02:31:57.500Z,10.10
2017-10-04T02:34:24.989Z,10.10
2017-10-04T02:36:53.024Z,10.10
2017-10-04T02:39:20.673Z,10.10
2017-10-04T02:41:48.243Z,10.00
2017-10-04T02:44:14.457Z,10.00
2017-10-04T02:46:40.652Z,9.90
2017-10-04T02:49:07.720Z,9.90
2017-10-04T02:51:34.480Z,10.00
2017-10-04T02:54:00.688Z,10.00
2017-10-04T02:56:26.918Z,10.00
2017-10-04T02:58:53.615Z,10.00
2017-10-04T03:01:19.822Z,10.00
2017-10-04T03:03:48.324Z,10.10
2017-10-04T03:06:15.097Z,9.90
2017-10-04T03:08:41.191Z,10.10
2017-10-04T03:11:07.269Z,10.10
2017-10-04T03:13:33.388Z,10.10
2017-10-04T03:15:59.466Z,10.20
2017-10-04T03:18:25.563Z,10.30
2017-10-04T03:20:53.253Z,10.40
2017-10-04T03:23:19.328Z,10.40
2017-10-04T03:25:45.408Z,10.60
2017-10-04T03:28:12.452Z,10.60
2017-10-04T03:30:38.929Z,10.70
2017-10-04T03:33:04.991Z,10.70
2017-10-04T03:35:31.064Z,10.80
2017-10-04T03:37:57.731Z,10.80
2017-10-04T03:40:24.539Z,10.90
2017-10-04T03:42:50.636Z,10.90
2017-10-04T03:45:17.623Z,10.90
2017-10-04T03:47:44.910Z,10.80
2017-10-04T03:50:11.054Z,10.80
2017-10-04T03:52:37.106Z,10.80
2017-10-04T03:55:03.811Z,10.80
2017-10-04T04:07:15.945Z,10.80
2017-10-04T04:09:42.036Z,10.60
2017-10-04T04:12:08.122Z,10.60
2017-10-04T04:14:34.169Z,10.60
2017-10-04T04:17:00.268Z,10.60
2017-10-04T04:19:27.003Z,10.60
2017-10-04T04:21:53.821Z,10.50
2017-10-04T04:24:19.927Z,10.50
2017-10-04T04:26:46.180Z,10.50
2017-10-04T04:29:13.024Z,10.50
2017-10-04T04:31:40.418Z,10.50
2017-10-04T04:34:07.340Z,10.50
2017-10-04T04:36:33.814Z,10.50
2017-10-04T04:38:59.945Z,10.40
2017-10-04T04:41:27.604Z,10.40
2017-10-04T04:43:54.210Z,10.40
2017-10-04T04:46:20.910Z,10.40
2017-10-04T04:48:46.991Z,10.40
2017-10-04T04:51:13.644Z,10.40
2017-10-04T04:53:39.728Z,10.40
2017-10-04T04:56:05.827Z,10.30
2017-10-04T04:58:32.667Z,10.40
2017-10-04T05:00:59.526Z,10.40
2017-10-04T05:03:26.427Z,10.30
2017-10-04T05:05:52.553Z,10.30
2017-10-04T05:08:19.278Z,10.30
2017-10-04T05:10:45.417Z,10.20
2017-10-04T05:13:11.508Z,10.20
2017-10-04T05:15:37.591Z,10.20
2017-10-04T05:18:03.699Z,10.30
2017-10-04T05:20:29.780Z,10.20
2017-10-04T05:22:56.887Z,10.10
2017-10-04T05:25:23.067Z,10.10
2017-10-04T05:27:49.155Z,10.20
2017-10-04T05:30:15.980Z,10.20
2017-10-04T05:32:42.080Z,10.20
2017-10-04T05:35:08.191Z,10.20
2017-10-04T05:37:34.251Z,10.20
2017-10-04T05:40:00.779Z,10.10
2017-10-04T05:42:26.876Z,10.20
2017-10-04T05:44:53.551Z,10.20
2017-10-04T05:47:19.636Z,10.30
2017-10-04T05:49:45.707Z,10.40
2017-10-04T05:52:12.991Z,10.40
2017-10-04T05:54:39.711Z,10.40
2017-10-04T05:57:06.529Z,10.40
2017-10-04T05:59:32.600Z,10.40
2017-10-04T06:01:58.673Z,10.50
2017-10-04T06:04:25.423Z,10.50
2017-10-04T06:06:52.279Z,10.50
2017-10-04T06:09:19.116Z,10.50
2017-10-04T06:11:45.940Z,10.50
2017-10-04T06:14:12.048Z,10.50
2017-10-04T06:16:39.177Z,10.60
2017-10-04T06:19:06.582Z,10.70
2017-10-04T06:21:33.392Z,10.80
2017-10-04T06:23:59.693Z,10.70
2017-10-04T06:26:26.976Z,10.80
2017-10-04T06:28:53.578Z,10.80
2017-10-04T06:31:20.904Z,11.00
2017-10-04T06:33:48.428Z,11.00
2017-10-04T06:36:14.802Z,11.00
2017-10-04T06:38:41.301Z,10.80
2017-10-04T06:41:08.335Z,10.60
2017-10-04T06:43:35.823Z,10.60
2017-10-04T06:46:03.418Z,10.40
2017-10-04T06:48:30.959Z,10.40
2017-10-04T06:50:57.199Z,10.50
2017-10-04T06:53:24.044Z,10.50
2017-10-04T06:55:57.476Z,10.40
2017-10-04T06:58:25.657Z,10.50
2017-10-04T07:00:52.517Z,10.50
2017-10-04T07:03:18.990Z,10.50
2017-10-04T07:05:45.903Z,10.60
2017-10-04T07:08:12.950Z,10.80
2017-10-04T07:10:40.311Z,10.80
2017-10-04T07:13:07.736Z,10.90
2017-10-04T07:15:35.495Z,10.90
2017-10-04T07:18:01.762Z,10.90
2017-10-04T07:20:28.733Z,11.20
2017-10-04T07:22:54.917Z,11.20
2017-10-04T07:25:21.127Z,11.30
2017-10-04T07:27:48.007Z,11.30
2017-10-04T07:30:15.574Z,11.30
2017-10-04T07:32:41.803Z,11.30
2017-10-04T07:35:08.886Z,11.40
2017-10-04T07:37:36.001Z,11.50
2017-10-04T07:40:03.191Z,11.50
2017-10-04T07:42:29.386Z,11.50
2017-10-04T07:44:56.254Z,11.60
2017-10-04T07:47:22.506Z,11.50
2017-10-04T07:49:49.219Z,11.50
2017-10-04T07:52:15.949Z,11.50
2017-10-04T07:54:42.970Z,11.60
2017-10-04T07:57:10.788Z,11.60
2017-10-04T07:59:37.403Z,11.60
2017-10-04T08:02:04.437Z,11.70
2017-10-04T08:04:30.652Z,11.70
2017-10-04T08:06:57.863Z,11.80
2017-10-04T08:09:25.553Z,11.70
2017-10-04T08:11:52.510Z,11.60
2017-10-04T08:14:18.855Z,11.60
2017-10-04T08:16:45.168Z,11.60
2017-10-04T08:19:11.896Z,11.50
2017-10-04T08:21:39.400Z,11.50
2017-10-04T08:24:05.659Z,11.50
2017-10-04T08:26:31.990Z,11.50
2017-10-04T08:28:58.255Z,11.50
2017-10-04T08:31:24.986Z,11.60
2017-10-04T08:33:51.170Z,11.70
2017-10-04T08:36:17.401Z,11.80
2017-10-04T08:38:44.384Z,11.90
2017-10-04T08:41:11.130Z,12.00
2017-10-04T08:43:37.762Z,12.20
2017-10-04T08:46:04.467Z,12.30
2017-10-04T08:48:37.565Z,12.40
2017-10-04T08:51:04.342Z,12.30
2017-10-04T08:53:31.064Z,12.40
2017-10-04T08:55:58.243Z,12.80
2017-10-04T08:58:25.079Z,12.80
2017-10-04T09:00:52.241Z,12.90
2017-10-04T09:03:18.688Z,12.80
2017-10-04T09:05:48.271Z,13.10
2017-10-04T09:08:15.068Z,13.10
2017-10-04T09:10:42.707Z,13.50
2017-10-04T09:13:09.249Z,13.50
2017-10-04T09:15:36.242Z,13.50
2017-10-04T09:18:02.778Z,13.50
2017-10-04T09:20:29.193Z,13.30
2017-10-04T09:22:56.589Z,13.30
2017-10-04T09:25:23.608Z,13.40
2017-10-04T09:27:50.100Z,13.30
2017-10-04T09:30:17.345Z,13.50
2017-10-04T09:32:45.520Z,13.60
2017-10-04T09:35:12.639Z,13.70
2017-10-04T09:37:38.864Z,13.70
2017-10-04T09:40:05.474Z,13.70
2017-10-04T09:42:33.305Z,13.60
2017-10-04T09:44:59.859Z,13.60
2017-10-04T09:47:27.465Z,13.80
2017-10-04T09:49:53.811Z,13.80
2017-10-04T09:52:20.275Z,13.90
2017-10-04T09:54:47.933Z,13.90
2017-10-04T09:57:14.463Z,13.90
2017-10-04T09:59:41.447Z,14.00
2017-10-04T10:02:07.685Z,14.00
2017-10-04T10:04:33.908Z,14.00
2017-10-04T10:07:00.274Z,14.10
2017-10-04T10:09:27.938Z,14.10
2017-10-04T10:11:55.385Z,14.00
2017-10-04T10:14:23.465Z,14.10
2017-10-04T10:16:53.884Z,14.10
2017-10-04T10:19:18.358Z,14.30
2017-10-04T10:21:45.290Z,14.50
2017-10-04T10:24:12.733Z,14.70
2017-10-04T10:26:39.141Z,14.70
2017-10-04T10:29:06.113Z,14.80
2017-10-04T10:31:32.362Z,14.80
2017-10-04T10:33:59.222Z,14.80
2017-10-04T10:36:25.483Z,15.00
2017-10-04T10:38:52.796Z,15.00
2017-10-04T10:41:19.125Z,15.10
2017-10-04T10:43:46.182Z,15.30
2017-10-04T10:46:13.368Z,15.40
2017-10-04T10:48:40.872Z,15.50
2017-10-04T10:51:07.564Z,15.40
2017-10-04T10:53:35.566Z,15.60
2017-10-04T10:56:03.727Z,15.60
2017-10-04T10:58:30.066Z,15.60
2017-10-04T11:00:56.817Z,15.70
2017-10-04T11:03:23.090Z,15.70
2017-10-04T11:05:49.552Z,15.80
2017-10-04T11:08:16.818Z,15.80
2017-10-04T11:10:43.873Z,15.60
2017-10-04T11:13:11.138Z,15.60
2017-10-04T11:15:37.378Z,15.50
2017-10-04T11:18:05.137Z,15.50
2017-10-04T11:20:31.369Z,15.60
2017-10-04T11:22:57.569Z,15.70
2017-10-04T11:25:23.895Z,15.70
2017-10-04T11:27:50.119Z,15.80
2017-10-04T11:30:16.869Z,15.90
2017-10-04T11:32:43.736Z,16.00
2017-10-04T11:35:09.977Z,16.10
2017-10-04T11:37:36.747Z,16.20
2017-10-04T11:40:04.665Z,16.60
2017-10-04T11:42:31.988Z,16.60
2017-10-04T11:44:59.352Z,16.60
2017-10-04T11:47:25.570Z,16.60
2017-10-04T11:49:51.773Z,16.60
2017-10-04T11:52:19.111Z,17.00
2017-10-04T11:54:45.305Z,17.00
2017-10-04T11:57:12.050Z,17.10
2017-10-04T11:59:39.663Z,17.10
2017-10-04T12:02:05.991Z,17.10
2017-10-04T12:04:32.951Z,17.10
2017-10-04T12:06:59.594Z,17.20
2017-10-04T12:09:27.482Z,17.50
2017-10-04T12:11:55.074Z,17.60
2017-10-04T12:14:22.088Z,17.60
2017-10-04T12:16:48.424Z,17.50
2017-10-04T12:19:14.938Z,17.50
2017-10-04T12:21:41.984Z,17.40
2017-10-04T12:24:08.489Z,17.40
2017-10-04T12:26:35.473Z,17.30
2017-10-04T12:29:02.788Z,17.30
2017-10-04T12:31:30.302Z,17.20
2017-10-04T12:33:56.527Z,17.20
2017-10-04T12:36:22.744Z,17.20
2017-10-04T12:38:49.482Z,17.20
2017-10-04T12:41:16.724Z,17.20
2017-10-04T12:43:43.838Z,17.30
2017-10-04T12:46:11.125Z,17.60
2017-10-04T12:48:38.307Z,17.60
2017-10-04T12:51:04.552Z,17.80
2017-10-04T12:53:31.313Z,17.70
2017-10-04T12:55:58.438Z,17.80
2017-10-04T12:58:25.463Z,17.70
2017-10-04T13:00:51.791Z,17.70
2017-10-04T13:03:19.370Z,17.60
2017-10-04T13:05:46.391Z,17.50
2017-10-04T13:08:12.836Z,17.40
2017-10-04T13:10:39.847Z,17.60
2017-10-04T13:13:06.270Z,17.60
2017-10-04T13:15:33.225Z,17.60
2017-10-04T13:17:59.453Z,17.50
2017-10-04T13:20:26.201Z,17.60
2017-10-04T13:22:52.821Z,17.50
2017-10-04T13:25:19.790Z,17.20
2017-10-04T13:27:46.591Z,17.20
2017-10-04T13:30:13.610Z,17.10
2017-10-04T13:32:40.196Z,17.00
2017-10-04T13:35:07.768Z,17.10
2017-10-04T13:37:35.750Z,17.10
2017-10-04T13:40:02.468Z,17.10
2017-10-04T13:42:28.708Z,17.40
2017-10-04T13:44:55.334Z,17.60
2017-10-04T13:47:23.744Z,17.70
2017-10-04T13:49:50.095Z,17.80
2017-10-04T13:52:16.327Z,17.90
2017-10-04T13:54:43.095Z,18.10
2017-10-04T13:57:10.957Z,18.20
2017-10-04T13:59:37.435Z,18.20
2017-10-04T14:02:05.150Z,18.10
2017-10-04T14:04:32.942Z,18.20
2017-10-04T14:06:59.472Z,18.10
2017-10-04T14:09:27.120Z,18.20
2017-10-04T14:11:54.192Z,18.10
2017-10-04T14:14:20.447Z,18.10
2017-10-04T14:16:48.288Z,18.00
2017-10-04T14:19:14.701Z,18.00
2017-10-04T14:21:41.955Z,17.80
2017-10-04T14:24:08.708Z,17.80
2017-10-04T14:26:34.954Z,17.80
2017-10-04T14:29:01.321Z,17.70
2017-10-04T14:31:28.618Z,17.50
2017-10-04T14:33:55.744Z,17.50
2017-10-04T14:36:22.621Z,17.50
2017-10-04T14:38:49.863Z,17.50
2017-10-04T14:41:16.637Z,17.40
2017-10-04T14:43:43.527Z,17.30
2017-10-04T14:46:10.477Z,17.30
2017-10-04T14:48:36.783Z,17.30
2017-10-04T14:51:03.994Z,17.30
2017-10-04T14:53:31.224Z,17.30
2017-10-04T14:55:58.297Z,17.40
2017-10-04T14:58:25.330Z,17.40
2017-10-04T15:00:51.562Z,17.40
2017-10-04T15:03:18.717Z,17.40
2017-10-04T15:05:44.927Z,17.40
2017-10-04T15:08:11.149Z,17.30
2017-10-04T15:10:37.965Z,17.20
2017-10-04T15:13:04.925Z,17.10
2017-10-04T15:15:31.243Z,17.10
2017-10-04T15:17:58.213Z,17.10
2017-10-04T15:20:24.477Z,17.10
2017-10-04T15:22:50.862Z,17.10
2017-10-04T15:25:17.694Z,17.00
2017-10-04T15:27:44.671Z,16.80
2017-10-04T15:30:10.914Z,16.80
2017-10-04T15:32:37.856Z,16.70
2017-10-04T15:35:04.366Z,16.60
2017-10-04T15:37:30.690Z,16.50
2017-10-04T15:39:56.928Z,16.50
2017-10-04T15:42:23.430Z,16.50
2017-10-04T15:44:49.961Z,16.40
2017-10-04T15:47:24.011Z,16.30
2017-10-04T15:49:50.855Z,16.30
2017-10-04T15:52:17.493Z,16.10
2017-10-04T15:54:45.125Z,16.10
2017-10-04T15:57:12.084Z,16.10
2017-10-04T15:59:38.731Z,16.10
2017-10-04T16:02:06.075Z,15.90
2017-10-04T16:04:33.145Z,15.80
2017-10-04T16:06:59.365Z,15.80
2017-10-04T16:09:26.203Z,15.80
2017-10-04T16:11:53.474Z,15.70
2017-10-04T16:14:19.770Z,15.60
2017-10-04T16:16:46.560Z,15.60
2017-10-04T16:19:13.500Z,15.50
2017-10-04T16:21:40.503Z,15.50
2017-10-04T16:24:06.787Z,15.50
2017-10-04T16:26:34.701Z,15.40
2017-10-04T16:29:00.976Z,15.30
2017-10-04T16:31:27.417Z,15.30
2017-10-04T16:33:54.424Z,15.20
2017-10-04T16:36:21.666Z,15.20
2017-10-04T16:38:47.970Z,15.20
2017-10-04T16:41:15.431Z,15.10
2017-10-04T16:43:42.669Z,15.00
2017-10-04T16:46:10.632Z,14.90
2017-10-04T16:48:37.645Z,14.90
2017-10-04T16:51:03.911Z,14.80
2017-10-04T16:53:31.012Z,14.70
2017-10-04T16:55:57.360Z,14.60
2017-10-04T16:58:23.662Z,14.60
2017-10-04T17:00:50.289Z,14.50
2017-10-04T17:03:16.544Z,14.40
2017-10-04T17:05:43.300Z,14.30
2017-10-04T17:08:10.382Z,14.10
2017-10-04T17:10:38.092Z,14.00
2017-10-04T17:13:04.862Z,14.00
2017-10-04T17:15:31.673Z,13.80
2017-10-04T17:17:58.144Z,13.50
2017-10-04T17:20:25.322Z,13.20
2017-10-04T17:22:52.550Z,13.20
2017-10-04T17:25:19.494Z,13.10
2017-10-04T17:27:46.549Z,13.10
2017-10-04T17:30:14.130Z,13.10
2017-10-04T17:32:41.371Z,13.00
2017-10-04T17:35:08.170Z,13.10
2017-10-04T17:37:35.687Z,12.60
2017-10-04T17:40:03.737Z,12.40
2017-10-04T17:42:32.024Z,12.40
2017-10-04T17:44:58.742Z,12.40
2017-10-04T17:47:24.992Z,12.40
2017-10-04T17:49:51.818Z,12.30
2017-10-04T17:52:18.833Z,12.30
2017-10-04T17:54:45.733Z,12.30
2017-10-04T17:57:12.525Z,12.40
2017-10-04T17:59:39.132Z,12.30
2017-10-04T18:02:05.452Z,12.40
2017-10-04T18:04:31.898Z,12.40
2017-10-04T18:06:59.022Z,12.40
2017-10-04T18:09:25.337Z,12.40
2017-10-04T18:11:52.694Z,12.30
2017-10-04T18:14:18.900Z,12.20
2017-10-04T18:16:45.905Z,12.20
2017-10-04T18:19:13.007Z,12.20
2017-10-04T18:21:39.318Z,12.10
2017-10-04T18:24:06.861Z,12.00
2017-10-04T18:26:33.981Z,12.10
2017-10-04T18:29:00.229Z,12.00
2017-10-04T18:31:26.463Z,12.10
2017-10-04T18:33:52.821Z,12.00
2017-10-04T18:36:19.348Z,12.00
2017-10-04T18:38:47.337Z,12.00
2017-10-04T18:41:13.580Z,12.00
2017-10-04T18:43:40.821Z,12.00
2017-10-04T18:46:07.945Z,11.90
2017-10-04T18:48:35.183Z,11.90
2017-10-04T18:51:01.392Z,11.80
2017-10-04T18:53:28.308Z,11.80
2017-10-04T18:55:55.610Z,11.80
2017-10-04T18:58:23.206Z,11.80
2017-10-04T19:00:51.240Z,11.80
2017-10-04T19:03:18.351Z,11.80
2017-10-04T19:05:45.129Z,11.70
2017-10-04T19:08:12.271Z,11.70
2017-10-04T19:10:38.706Z,11.70
2017-10-04T19:13:06.051Z,11.60
2017-10-04T19:15:33.671Z,11.60
2017-10-04T19:17:59.900Z,11.60
2017-10-04T19:20:27.655Z,11.70
2017-10-04T19:22:55.373Z,11.60
2017-10-04T19:25:22.393Z,11.60
2017-10-04T19:27:49.865Z,11.60
2017-10-04T19:30:16.277Z,11.60
2017-10-04T19:32:43.139Z,11.70
2017-10-04T19:35:10.247Z,11.60
2017-10-04T19:37:37.851Z,11.60
2017-10-04T19:40:04.431Z,11.60
2017-10-04T19:42:32.161Z,11.60
2017-10-04T19:44:59.042Z,11.60
2017-10-04T19:47:27.419Z,11.50
2017-10-04T19:49:54.730Z,11.50
2017-10-04T19:52:21.314Z,11.40
2017-10-04T19:54:48.642Z,11.50
2017-10-04T19:57:14.982Z,11.50
2017-10-04T19:59:42.599Z,11.50
2017-10-04T20:02:10.704Z,11.50
2017-10-04T20:04:37.188Z,11.50
2017-10-04T20:07:04.792Z,11.50
2017-10-04T20:09:31.997Z,11.50
2017-10-04T20:11:58.216Z,11.50
2017-10-04T20:14:25.289Z,11.50
2017-10-04T20:16:52.294Z,11.50
2017-10-04T20:19:19.116Z,11.50
2017-10-04T20:21:45.589Z,11.50
2017-10-04T20:24:13.454Z,11.50
2017-10-04T20:26:40.297Z,11.50
2017-10-04T20:29:08.836Z,11.60
2017-10-04T20:31:35.272Z,11.60
2017-10-04T20:34:01.518Z,11.50
2017-10-04T20:36:28.602Z,11.50
2017-10-04T20:38:54.916Z,11.50
2017-10-04T20:41:21.850Z,11.50
2017-10-04T20:43:48.595Z,11.50
2017-10-04T20:46:14.925Z,11.50
2017-10-04T20:48:41.833Z,11.50
2017-10-04T20:51:08.230Z,11.50
2017-10-04T20:53:35.837Z,11.50
2017-10-04T20:56:02.804Z,11.60
2017-10-04T20:58:29.029Z,11.60
2017-10-04T21:00:55.246Z,11.60
2017-10-04T21:03:23.425Z,11.50
2017-10-04T21:05:50.646Z,11.50
2017-10-04T21:08:17.243Z,11.50
2017-10-04T21:10:43.621Z,11.40
2017-10-04T21:13:11.200Z,11.20
2017-10-04T21:15:38.065Z,11.20
2017-10-04T21:18:04.284Z,11.20
2017-10-04T21:20:31.592Z,11.20
2017-10-04T21:22:58.422Z,11.30
2017-10-04T21:25:24.922Z,11.30
2017-10-04T21:27:51.950Z,11.40
2017-10-04T21:30:18.250Z,11.40
2017-10-04T21:32:45.388Z,11.50
2017-10-04T21:35:14.343Z,11.50
2017-10-04T21:37:40.889Z,11.50
2017-10-04T21:40:09.037Z,11.50
2017-10-04T21:42:35.782Z,11.50
2017-10-04T21:45:02.686Z,11.50
2017-10-04T21:47:29.253Z,11.50
2017-10-04T21:49:56.336Z,11.50
2017-10-04T21:52:22.772Z,11.40
2017-10-04T21:54:50.794Z,11.50
2017-10-04T21:57:18.766Z,11.50
2017-10-04T21:59:45.542Z,11.50
2017-10-04T22:02:12.295Z,11.50
2017-10-04T22:04:38.735Z,11.50
2017-10-04T22:07:06.479Z,11.50
2017-10-04T22:09:32.675Z,11.40
2017-10-04T22:11:58.935Z,11.30
2017-10-04T22:14:26.126Z,11.30
2017-10-04T22:16:53.671Z,11.40
2017-10-04T22:19:19.951Z,11.40
2017-10-04T22:21:46.851Z,11.40
2017-10-04T22:24:13.947Z,11.20
2017-10-04T22:26:41.491Z,11.20
2017-10-04T22:29:07.946Z,11.20
2017-10-04T22:31:34.175Z,11.20
2017-10-04T22:34:01.135Z,11.20
2017-10-04T22:36:27.886Z,11.20
2017-10-04T22:38:55.640Z,11.30
2017-10-04T22:41:22.980Z,11.30
2017-10-04T22:43:49.697Z,11.30
2017-10-04T22:46:16.869Z,11.10
2017-10-04T22:48:43.616Z,11.00
2017-10-04T22:51:10.396Z,11.10
2017-10-04T22:53:37.450Z,11.10
2017-10-04T22:56:05.047Z,11.20
2017-10-04T22:58:32.790Z,11.20
2017-10-04T23:00:59.556Z,11.20
2017-10-04T23:03:26.203Z,11.30
2017-10-04T23:05:54.103Z,11.30
2017-10-04T23:08:21.133Z,11.30
2017-10-04T23:10:48.152Z,11.30
2017-10-04T23:13:14.332Z,11.30
2017-10-04T23:15:42.023Z,11.30
2017-10-04T23:18:10.337Z,11.10
2017-10-04T23:20:37.819Z,11.20
2017-10-04T23:23:04.805Z,11.20
2017-10-04T23:25:32.304Z,11.20
2017-10-04T23:27:59.326Z,11.20
2017-10-04T23:30:27.339Z,11.40
2017-10-04T23:32:53.614Z,11.30
2017-10-04T23:35:20.835Z,11.40
2017-10-04T23:37:49.012Z,11.40
2017-10-04T23:40:16.932Z,11.40
2017-10-04T23:42:44.141Z,11.40
2017-10-04T23:45:10.517Z,11.40
2017-10-04T23:47:37.546Z,11.50
2017-10-04T23:50:04.926Z,11.50
2017-10-04T23:52:32.769Z,11.50
2017-10-04T23:54:59.062Z,11.60
2017-10-04T23:57:26.657Z,11.60
2017-10-04T23:59:52.968Z,11.60
